createdAt,value
2019-04-23T00:04:10.158Z,16.40
2019-04-23T00:06:48.892Z,16.40
2019-04-23T00:09:27.693Z,16.30
2019-04-23T00:11:49.536Z,16.30
2019-04-23T00:16:43.987Z,16.20
2019-04-23T00:19:18.968Z,16.20
2019-04-23T00:22:13.609Z,16.20
2019-04-23T00:27:32.027Z,16.10
2019-04-23T00:29:56.615Z,16.00
2019-04-23T00:32:31.873Z,16.00
2019-04-23T00:35:01.054Z,16.00
2019-04-23T00:37:31.587Z,16.10
2019-04-23T00:39:56.750Z,16.00
2019-04-23T00:42:38.522Z,16.00
2019-04-23T00:45:01.072Z,15.90
2019-04-23T00:52:40.569Z,15.80
2019-04-23T00:57:47.086Z,15.70
2019-04-23T01:02:45.774Z,15.60
2019-04-23T01:05:18.696Z,15.60
2019-04-23T01:07:45.719Z,15.60
2019-04-23T01:10:25.563Z,15.60
2019-04-23T01:12:51.210Z,15.60
2019-04-23T01:15:28.841Z,15.60
2019-04-23T01:20:44.161Z,15.60
2019-04-23T01:22:50.857Z,15.50
2019-04-23T01:25:40.597Z,15.50
2019-04-23T01:28:26.666Z,15.40
2019-04-23T01:31:05.264Z,15.30
2019-04-23T01:33:32.986Z,15.30
2019-04-23T01:36:21.896Z,15.30
2019-04-23T01:38:35.491Z,15.20
2019-04-23T01:41:03.540Z,15.20
2019-04-23T01:43:37.804Z,15.10
2019-04-23T01:46:07.775Z,15.10
2019-04-23T01:48:40.537Z,15.10
2019-04-23T01:51:01.844Z,15.10
2019-04-23T01:53:40.587Z,15.10
2019-04-23T01:56:04.792Z,15.10
2019-04-23T01:58:45.371Z,15.00
2019-04-23T02:01:11.824Z,15.00
2019-04-23T02:03:42.696Z,14.90
2019-04-23T02:06:14.873Z,14.90
2019-04-23T02:08:47.043Z,14.80
2019-04-23T02:11:13.116Z,14.90
2019-04-23T02:13:48.996Z,14.90
2019-04-23T02:16:19.304Z,14.90
2019-04-23T02:18:52.860Z,14.90
2019-04-23T02:21:22.555Z,14.80
2019-04-23T02:23:57.211Z,14.80
2019-04-23T02:26:34.153Z,14.70
2019-04-23T02:29:14.564Z,14.70
2019-04-23T02:31:52.786Z,14.70
2019-04-23T02:36:45.143Z,14.70
2019-04-23T02:39:31.177Z,14.60
2019-04-23T02:41:55.946Z,14.70
2019-04-23T02:44:16.657Z,14.60
2019-04-23T02:46:54.012Z,14.60
2019-04-23T02:49:31.478Z,14.50
2019-04-23T02:52:10.542Z,14.50
2019-04-23T02:57:11.482Z,14.50
2019-04-23T03:04:50.300Z,14.40
2019-04-23T03:07:38.938Z,14.40
2019-04-23T03:09:51.747Z,14.40
2019-04-23T03:15:11.231Z,14.20
2019-04-23T03:18:16.311Z,14.20
2019-04-23T03:26:08.528Z,14.00
2019-04-23T03:28:35.839Z,14.00
2019-04-23T03:32:30.803Z,13.80
2019-04-23T03:38:42.922Z,13.40
2019-04-23T03:41:14.782Z,13.40
2019-04-23T03:46:23.235Z,13.40
2019-04-23T03:48:42.970Z,13.40
2019-04-23T03:51:05.645Z,13.40
2019-04-23T04:01:19.793Z,13.30
2019-04-23T04:04:14.889Z,13.20
2019-04-23T04:06:28.113Z,13.20
2019-04-23T04:18:57.403Z,12.80
2019-04-23T04:23:58.187Z,12.90
2019-04-23T04:26:29.241Z,12.90
2019-04-23T04:28:51.122Z,12.80
2019-04-23T04:31:21.899Z,12.70
2019-04-23T04:38:58.942Z,12.70
2019-04-23T04:49:01.492Z,12.60
2019-04-23T04:51:46.821Z,12.60
2019-04-23T04:56:43.093Z,12.70
2019-04-23T04:59:05.607Z,12.70
2019-04-23T05:01:28.214Z,12.80
2019-04-23T05:04:05.534Z,12.80
2019-04-23T05:06:44.596Z,12.80
2019-04-23T05:09:16.926Z,12.90
2019-04-23T05:11:46.152Z,12.90
2019-04-23T05:14:25.164Z,12.90
2019-04-23T05:16:37.082Z,12.90
2019-04-23T05:21:51.763Z,13.00
2019-04-23T05:24:08.549Z,13.00
2019-04-23T05:26:33.343Z,13.00
2019-04-23T05:29:27.617Z,13.00
2019-04-23T05:31:32.556Z,13.10
2019-04-23T05:34:02.567Z,13.10
2019-04-23T05:36:52.161Z,13.10
2019-04-23T05:39:22.131Z,13.20
2019-04-23T05:41:45.622Z,13.20
2019-04-23T05:44:21.177Z,13.20
2019-04-23T05:46:45.897Z,13.20
2019-04-23T05:49:18.676Z,13.30
2019-04-23T05:56:53.917Z,13.40
2019-04-23T05:59:25.873Z,13.50
2019-04-23T06:02:09.206Z,13.50
2019-04-23T06:04:31.511Z,13.60
2019-04-23T06:07:08.394Z,13.60
2019-04-23T06:09:28.634Z,13.70
2019-04-23T06:14:33.550Z,13.80
2019-04-23T06:17:03.785Z,13.80
2019-04-23T06:19:27.612Z,13.90
2019-04-23T06:24:47.094Z,14.00
2019-04-23T06:27:06.926Z,14.00
2019-04-23T06:31:58.490Z,14.10
2019-04-23T06:34:36.366Z,14.20
2019-04-23T06:42:08.110Z,14.30
2019-04-23T06:44:44.959Z,14.50
2019-04-23T06:47:16.840Z,14.50
2019-04-23T06:52:19.014Z,14.60
2019-04-23T06:54:56.210Z,14.70
2019-04-23T06:59:52.755Z,14.90
2019-04-23T07:04:57.197Z,15.00
2019-04-23T07:07:42.962Z,15.00
2019-04-23T07:09:52.104Z,15.10
2019-04-23T07:15:00.847Z,15.20
2019-04-23T07:17:24.696Z,15.20
2019-04-23T07:20:16.495Z,15.30
2019-04-23T07:22:26.771Z,15.30
2019-04-23T07:25:01.107Z,15.30
2019-04-23T07:27:42.822Z,15.40
2019-04-23T07:30:11.595Z,15.40
2019-04-23T07:32:32.687Z,15.40
2019-04-23T07:35:08.727Z,15.40
2019-04-23T07:37:42.987Z,15.40
2019-04-23T07:43:00.214Z,15.50
2019-04-23T07:45:35.406Z,15.60
2019-04-23T07:48:16.717Z,15.60
2019-04-23T07:56:02.556Z,15.70
2019-04-23T08:01:01.619Z,15.90
2019-04-23T08:03:33.078Z,15.90
2019-04-23T08:06:01.032Z,15.90
2019-04-23T08:08:30.225Z,16.00
2019-04-23T08:18:49.568Z,16.20
2019-04-23T08:21:16.216Z,16.20
2019-04-23T08:24:08.667Z,16.20
2019-04-23T08:26:52.018Z,16.20
2019-04-23T08:32:00.319Z,16.30
2019-04-23T08:34:31.183Z,16.30
2019-04-23T08:37:03.132Z,16.30
2019-04-23T08:39:26.512Z,16.30
2019-04-23T08:50:44.102Z,16.50
2019-04-23T08:55:49.447Z,16.60
2019-04-23T08:58:29.210Z,16.70
2019-04-23T09:03:30.171Z,16.80
2019-04-23T09:06:02.514Z,16.90
2019-04-23T09:08:30.468Z,16.90
2019-04-23T09:11:04.654Z,16.90
2019-04-23T09:13:49.896Z,16.90
2019-04-23T09:21:06.245Z,17.00
2019-04-23T09:28:41.757Z,17.20
2019-04-23T09:31:38.638Z,17.30
2019-04-23T09:34:07.878Z,17.30
2019-04-23T09:37:04.632Z,17.40
2019-04-23T09:39:34.800Z,17.40
2019-04-23T09:42:16.050Z,17.40
2019-04-23T09:45:00.162Z,17.40
2019-04-23T09:50:10.770Z,17.50
2019-04-23T09:52:48.386Z,17.70
2019-04-23T09:57:43.368Z,17.90
2019-04-23T10:00:16.870Z,17.60
2019-04-23T10:02:39.323Z,17.70
2019-04-23T10:04:59.856Z,17.80
2019-04-23T10:07:30.016Z,17.90
2019-04-23T10:09:51.750Z,18.00
2019-04-23T10:12:24.113Z,18.10
2019-04-23T10:15:02.314Z,18.20
2019-04-23T10:17:24.428Z,18.30
2019-04-23T10:19:55.142Z,18.40
2019-04-23T10:22:25.113Z,18.50
2019-04-23T10:24:55.303Z,18.50
2019-04-23T10:27:25.145Z,18.60
2019-04-23T10:29:56.076Z,18.60
2019-04-23T10:32:27.331Z,18.70
2019-04-23T10:35:10.194Z,18.80
2019-04-23T10:37:37.836Z,18.90
2019-04-23T10:40:03.520Z,19.00
2019-04-23T10:42:32.025Z,19.10
2019-04-23T10:45:34.932Z,19.20
2019-04-23T10:51:15.790Z,19.20
2019-04-23T10:53:52.420Z,19.30
2019-04-23T10:56:27.247Z,19.30
2019-04-23T10:58:58.457Z,19.40
2019-04-23T11:01:32.091Z,19.50
2019-04-23T11:04:11.937Z,19.50
2019-04-23T11:06:43.831Z,19.60
2019-04-23T11:09:15.529Z,19.60
2019-04-23T11:11:47.006Z,19.70
2019-04-23T11:14:22.971Z,19.70
2019-04-23T11:21:58.483Z,19.90
2019-04-23T11:24:37.990Z,20.00
2019-04-23T11:27:01.839Z,20.10
2019-04-23T11:29:35.661Z,20.10
2019-04-23T11:32:34.485Z,20.20
2019-04-23T11:37:23.158Z,20.30
2019-04-23T11:39:55.407Z,20.40
2019-04-23T11:42:38.822Z,20.40
2019-04-23T11:45:07.003Z,20.40
2019-04-23T11:47:59.138Z,20.50
2019-04-23T11:52:30.788Z,20.70
2019-04-23T11:55:22.798Z,20.70
2019-04-23T12:02:58.797Z,20.90
2019-04-23T12:05:58.263Z,21.00
2019-04-23T12:11:25.625Z,21.10
2019-04-23T12:13:41.348Z,21.10
2019-04-23T12:16:00.549Z,21.10
2019-04-23T12:19:12.823Z,21.10
2019-04-23T12:21:28.399Z,21.10
2019-04-23T12:28:57.334Z,21.40
2019-04-23T12:31:34.181Z,21.50
2019-04-23T12:36:46.899Z,21.70
2019-04-23T12:39:11.994Z,21.80
2019-04-23T12:41:45.512Z,21.70
2019-04-23T12:44:16.205Z,21.80
2019-04-23T12:46:47.327Z,21.90
2019-04-23T12:49:34.042Z,22.00
2019-04-23T12:51:48.705Z,22.00
2019-04-23T12:54:36.394Z,22.00
2019-04-23T12:56:57.382Z,22.00
2019-04-23T12:59:22.052Z,22.10
2019-04-23T13:01:55.563Z,22.20
2019-04-23T13:04:29.654Z,22.30
2019-04-23T13:06:50.923Z,22.40
2019-04-23T13:09:42.924Z,22.50
2019-04-23T13:12:20.796Z,22.50
2019-04-23T13:14:35.014Z,22.60
2019-04-23T13:17:19.919Z,22.60
2019-04-23T13:19:44.828Z,22.60
2019-04-23T13:22:21.478Z,22.70
2019-04-23T13:24:48.680Z,22.80
2019-04-23T13:27:29.361Z,22.70
2019-04-23T13:30:00.221Z,22.80
2019-04-23T13:32:20.793Z,22.90
2019-04-23T13:34:58.843Z,22.90
2019-04-23T13:37:31.712Z,22.90
2019-04-23T13:39:52.204Z,22.90
2019-04-23T13:42:35.555Z,23.00
2019-04-23T13:44:57.799Z,23.00
2019-04-23T13:47:38.548Z,23.20
2019-04-23T13:50:10.374Z,23.00
2019-04-23T13:55:09.386Z,23.00
2019-04-23T14:00:27.042Z,23.20
2019-04-23T14:07:57.069Z,23.30
2019-04-23T14:10:40.077Z,23.30
2019-04-23T14:13:32.395Z,23.30
2019-04-23T14:15:41.189Z,23.30
2019-04-23T14:18:19.514Z,23.40
2019-04-23T14:25:41.506Z,23.70
2019-04-23T14:28:13.984Z,23.70
2019-04-23T14:33:17.587Z,23.90
2019-04-23T14:35:42.619Z,24.00
2019-04-23T14:40:43.082Z,23.90
2019-04-23T14:43:15.138Z,24.00
2019-04-23T14:48:23.117Z,24.00
2019-04-23T14:51:01.079Z,24.00
2019-04-23T14:53:24.418Z,24.00
2019-04-23T14:56:00.421Z,24.00
2019-04-23T15:01:20.765Z,23.90
2019-04-23T15:03:40.165Z,23.60
2019-04-23T15:08:49.477Z,23.40
2019-04-23T15:11:24.700Z,23.40
2019-04-23T15:16:20.855Z,23.40
2019-04-23T15:19:25.336Z,23.40
2019-04-23T15:24:14.101Z,23.30
2019-04-23T15:28:56.215Z,23.30
2019-04-23T15:34:13.807Z,23.30
2019-04-23T15:44:14.803Z,23.40
2019-04-23T15:46:52.539Z,23.40
2019-04-23T15:49:45.489Z,23.50
2019-04-23T15:52:18.804Z,23.50
2019-04-23T15:54:38.665Z,23.50
2019-04-23T15:57:02.445Z,23.50
2019-04-23T16:01:43.006Z,23.60
2019-04-23T16:04:11.284Z,23.50
2019-04-23T16:06:41.537Z,23.60
2019-04-23T16:09:36.160Z,23.60
2019-04-23T16:12:03.565Z,23.60
2019-04-23T16:14:57.013Z,23.70
2019-04-23T16:17:24.061Z,23.60
2019-04-23T16:22:30.430Z,23.50
2019-04-23T16:25:06.924Z,23.40
2019-04-23T16:27:32.021Z,23.40
2019-04-23T16:40:42.608Z,23.20
2019-04-23T16:45:45.952Z,23.20
2019-04-23T16:48:26.272Z,23.20
2019-04-23T16:51:00.954Z,23.10
2019-04-23T16:55:55.089Z,23.10
2019-04-23T16:58:29.001Z,23.10
2019-04-23T17:01:05.804Z,23.10
2019-04-23T17:03:28.558Z,23.10
2019-04-23T17:08:47.830Z,23.10
2019-04-23T17:11:10.160Z,23.10
2019-04-23T17:16:08.213Z,23.20
2019-04-23T17:18:32.011Z,23.20
2019-04-23T17:21:07.305Z,23.20
2019-04-23T17:23:54.131Z,23.20
2019-04-23T17:26:11.316Z,23.10
2019-04-23T17:28:35.620Z,23.10
2019-04-23T17:33:43.888Z,23.00
2019-04-23T17:42:05.470Z,22.80
2019-04-23T17:47:20.462Z,22.50
2019-04-23T17:49:59.069Z,22.50
2019-04-23T17:52:31.053Z,22.50
2019-04-23T17:54:56.731Z,22.40
2019-04-23T17:57:32.585Z,22.40
2019-04-23T18:00:11.450Z,22.30
2019-04-23T18:02:49.341Z,22.30
2019-04-23T18:15:04.990Z,21.90
2019-04-23T18:20:16.276Z,21.70
2019-04-23T18:22:53.691Z,21.50
2019-04-23T18:25:26.739Z,21.20
2019-04-23T18:27:54.430Z,21.10
2019-04-23T18:30:49.624Z,20.90
2019-04-23T18:35:33.760Z,20.60
2019-04-23T18:38:19.802Z,20.50
2019-04-23T18:41:01.396Z,20.30
2019-04-23T18:43:26.784Z,20.20
2019-04-23T18:51:07.833Z,19.80
2019-04-23T18:53:54.560Z,19.60
2019-04-23T19:01:22.850Z,19.20
2019-04-23T19:04:33.168Z,19.10
2019-04-23T19:06:41.138Z,18.90
2019-04-23T19:12:58.260Z,18.90
2019-04-23T19:20:50.067Z,18.70
2019-04-23T19:23:08.667Z,18.70
2019-04-23T19:25:31.881Z,18.70
2019-04-23T19:28:10.490Z,18.60
2019-04-23T19:31:05.591Z,18.50
2019-04-23T19:33:35.310Z,18.50
2019-04-23T19:36:11.017Z,18.30
2019-04-23T19:38:34.839Z,18.20
2019-04-23T19:41:01.920Z,18.20
2019-04-23T19:46:07.804Z,18.20
2019-04-23T19:51:09.562Z,18.20
2019-04-23T19:53:50.112Z,18.20
2019-04-23T19:58:48.137Z,18.20
2019-04-23T20:03:49.823Z,18.20
2019-04-23T20:11:30.142Z,18.10
2019-04-23T20:14:02.918Z,18.10
2019-04-23T20:16:36.087Z,18.00
2019-04-23T20:21:19.600Z,18.00
2019-04-23T20:24:21.563Z,18.00
2019-04-23T20:26:23.391Z,17.90
2019-04-23T20:37:12.647Z,18.00
2019-04-23T20:40:01.073Z,18.00
2019-04-23T20:42:27.178Z,18.00
2019-04-23T20:47:35.631Z,18.10
2019-04-23T20:49:48.955Z,18.10
2019-04-23T20:52:28.944Z,18.10
2019-04-23T21:03:06.654Z,18.00
2019-04-23T21:05:19.564Z,18.00
2019-04-23T21:07:54.105Z,18.00
2019-04-23T21:15:22.974Z,17.80
2019-04-23T21:18:10.208Z,17.80
2019-04-23T21:20:30.079Z,17.70
2019-04-23T21:25:22.194Z,17.70
2019-04-23T21:33:53.784Z,17.50
2019-04-23T21:36:25.643Z,17.50
2019-04-23T21:39:20.310Z,17.40
2019-04-23T21:41:53.232Z,17.40
2019-04-23T21:44:11.858Z,17.40
2019-04-23T21:46:49.522Z,17.30
2019-04-23T21:49:29.588Z,17.30
2019-04-23T21:54:13.219Z,17.20
2019-04-23T21:56:48.220Z,17.10
2019-04-23T21:59:09.923Z,17.10
2019-04-23T22:06:52.889Z,16.70
2019-04-23T22:09:30.027Z,16.70
2019-04-23T22:12:08.491Z,16.60
2019-04-23T22:14:27.504Z,16.60
2019-04-23T22:17:03.216Z,16.50
2019-04-23T22:19:44.959Z,16.40
2019-04-23T22:22:11.141Z,16.30
2019-04-23T22:24:27.463Z,16.40
2019-04-23T22:26:59.865Z,16.30
2019-04-23T22:29:45.376Z,16.20
2019-04-23T22:32:06.054Z,16.20
2019-04-23T22:34:39.853Z,16.10
2019-04-23T22:37:11.048Z,16.00
2019-04-23T22:39:39.892Z,16.00
2019-04-23T22:42:15.084Z,16.00
2019-04-23T22:49:50.179Z,16.00
2019-04-23T22:52:21.658Z,16.00
2019-04-23T22:54:57.142Z,16.00
2019-04-23T22:57:20.915Z,15.90
2019-04-23T23:00:04.527Z,15.90
2019-04-23T23:02:46.687Z,16.00
2019-04-23T23:05:29.774Z,15.90
2019-04-23T23:07:47.725Z,15.90
2019-04-23T23:15:24.494Z,15.80
2019-04-23T23:17:51.181Z,15.80
2019-04-23T23:22:57.177Z,15.80
2019-04-23T23:25:18.847Z,15.80
2019-04-23T23:27:50.153Z,15.70
2019-04-23T23:32:51.145Z,15.60
2019-04-23T23:35:24.388Z,15.60
2019-04-23T23:37:49.928Z,15.60
2019-04-23T23:40:20.439Z,15.60
2019-04-23T23:43:05.437Z,15.50
2019-04-23T23:47:59.266Z,15.40
2019-04-23T23:53:12.317Z,15.40
2019-04-23T23:58:10.749Z,15.20
